sensor_id;sensor_type;location;lat;lon;timestamp;P1;durP1;ratioP1;P2;durP2;ratioP2
59788;SDS011;47353;51.614;5.530;2023-03-04T00:00:06;18.25;;;3.20;;
59788;SDS011;47353;51.614;5.530;2023-03-04T00:02:32;16.70;;;3.35;;
59788;SDS011;47353;51.614;5.530;2023-03-04T00:04:58;15.32;;;3.22;;
59788;SDS011;47353;51.614;5.530;2023-03-04T00:07:23;18.35;;;3.95;;
59788;SDS011;47353;51.614;5.530;2023-03-04T00:09:48;13.43;;;3.13;;
59788;SDS011;47353;51.614;5.530;2023-03-04T00:12:14;14.18;;;3.35;;
59788;SDS011;47353;51.614;5.530;2023-03-04T00:14:39;14.90;;;3.20;;
59788;SDS011;47353;51.614;5.530;2023-03-04T00:17:05;14.05;;;2.85;;
59788;SDS011;47353;51.614;5.530;2023-03-04T00:19:31;18.00;;;3.55;;
59788;SDS011;47353;51.614;5.530;2023-03-04T00:21:56;13.90;;;3.22;;
59788;SDS011;47353;51.614;5.530;2023-03-04T00:24:22;17.17;;;3.35;;
59788;SDS011;47353;51.614;5.530;2023-03-04T00:26:48;13.45;;;3.33;;
59788;SDS011;47353;51.614;5.530;2023-03-04T00:29:14;16.80;;;3.45;;
59788;SDS011;47353;51.614;5.530;2023-03-04T00:31:40;12.63;;;2.83;;
59788;SDS011;47353;51.614;5.530;2023-03-04T00:34:05;22.35;;;3.30;;
59788;SDS011;47353;51.614;5.530;2023-03-04T00:36:30;17.38;;;3.35;;
59788;SDS011;47353;51.614;5.530;2023-03-04T00:38:56;12.10;;;2.53;;
59788;SDS011;47353;51.614;5.530;2023-03-04T00:41:21;18.02;;;3.17;;
59788;SDS011;47353;51.614;5.530;2023-03-04T00:43:47;13.95;;;2.75;;
59788;SDS011;47353;51.614;5.530;2023-03-04T00:46:12;15.98;;;2.83;;
59788;SDS011;47353;51.614;5.530;2023-03-04T00:48:39;18.30;;;2.80;;
59788;SDS011;47353;51.614;5.530;2023-03-04T00:51:04;14.05;;;2.80;;
59788;SDS011;47353;51.614;5.530;2023-03-04T00:53:30;12.63;;;2.65;;
59788;SDS011;47353;51.614;5.530;2023-03-04T00:55:55;17.05;;;3.05;;
59788;SDS011;47353;51.614;5.530;2023-03-04T00:58:20;14.43;;;2.92;;
59788;SDS011;47353;51.614;5.530;2023-03-04T01:00:46;16.98;;;3.20;;
59788;SDS011;47353;51.614;5.530;2023-03-04T01:03:11;15.50;;;2.70;;
59788;SDS011;47353;51.614;5.530;2023-03-04T01:05:37;16.75;;;2.63;;
59788;SDS011;47353;51.614;5.530;2023-03-04T01:08:02;13.57;;;3.08;;
59788;SDS011;47353;51.614;5.530;2023-03-04T01:10:28;19.73;;;3.22;;
59788;SDS011;47353;51.614;5.530;2023-03-04T01:12:53;15.52;;;2.67;;
59788;SDS011;47353;51.614;5.530;2023-03-04T01:15:19;18.98;;;2.80;;
59788;SDS011;47353;51.614;5.530;2023-03-04T01:17:44;15.52;;;2.50;;
59788;SDS011;47353;51.614;5.530;2023-03-04T01:20:10;14.48;;;3.53;;
59788;SDS011;47353;51.614;5.530;2023-03-04T01:22:35;20.33;;;3.03;;
59788;SDS011;47353;51.614;5.530;2023-03-04T01:25:01;13.65;;;2.58;;
59788;SDS011;47353;51.614;5.530;2023-03-04T01:27:27;11.20;;;2.65;;
59788;SDS011;47353;51.614;5.530;2023-03-04T01:29:53;12.93;;;2.67;;
59788;SDS011;47353;51.614;5.530;2023-03-04T01:32:18;17.73;;;3.15;;
59788;SDS011;47353;51.614;5.530;2023-03-04T01:34:43;11.52;;;2.78;;
59788;SDS011;47353;51.614;5.530;2023-03-04T01:37:10;11.85;;;2.88;;
59788;SDS011;47353;51.614;5.530;2023-03-04T01:39:37;17.60;;;3.28;;
59788;SDS011;47353;51.614;5.530;2023-03-04T01:42:02;17.85;;;2.80;;
59788;SDS011;47353;51.614;5.530;2023-03-04T01:44:28;16.65;;;3.10;;
59788;SDS011;47353;51.614;5.530;2023-03-04T01:46:53;15.82;;;3.08;;
59788;SDS011;47353;51.614;5.530;2023-03-04T01:49:20;11.38;;;2.80;;
59788;SDS011;47353;51.614;5.530;2023-03-04T01:51:49;16.10;;;3.25;;
59788;SDS011;47353;51.614;5.530;2023-03-04T01:54:18;15.80;;;2.75;;
59788;SDS011;47353;51.614;5.530;2023-03-04T01:56:45;18.75;;;3.15;;
59788;SDS011;47353;51.614;5.530;2023-03-04T01:59:19;11.70;;;2.90;;
59788;SDS011;47353;51.614;5.530;2023-03-04T02:01:53;12.45;;;2.47;;
59788;SDS011;47353;51.614;5.530;2023-03-04T02:04:21;15.23;;;3.05;;
59788;SDS011;47353;51.614;5.530;2023-03-04T02:06:49;13.40;;;2.28;;
59788;SDS011;47353;51.614;5.530;2023-03-04T02:09:15;15.05;;;2.30;;
59788;SDS011;47353;51.614;5.530;2023-03-04T02:11:41;14.40;;;2.65;;
59788;SDS011;47353;51.614;5.530;2023-03-04T02:14:09;11.20;;;2.20;;
59788;SDS011;47353;51.614;5.530;2023-03-04T02:16:35;15.23;;;2.28;;
59788;SDS011;47353;51.614;5.530;2023-03-04T02:19:03;10.38;;;2.03;;
59788;SDS011;47353;51.614;5.530;2023-03-04T02:21:32;13.05;;;2.28;;
59788;SDS011;47353;51.614;5.530;2023-03-04T02:26:47;17.20;;;2.50;;
59788;SDS011;47353;51.614;5.530;2023-03-04T02:29:13;12.07;;;2.15;;
59788;SDS011;47353;51.614;5.530;2023-03-04T02:31:41;11.50;;;2.22;;
59788;SDS011;47353;51.614;5.530;2023-03-04T02:34:12;13.73;;;2.47;;
59788;SDS011;47353;51.614;5.530;2023-03-04T02:36:40;11.57;;;2.50;;
59788;SDS011;47353;51.614;5.530;2023-03-04T02:39:49;10.40;;;2.25;;
59788;SDS011;47353;51.614;5.530;2023-03-04T02:41:58;10.88;;;2.22;;
59788;SDS011;47353;51.614;5.530;2023-03-04T02:44:35;10.93;;;2.45;;
59788;SDS011;47353;51.614;5.530;2023-03-04T02:47:07;12.43;;;2.17;;
59788;SDS011;47353;51.614;5.530;2023-03-04T02:49:33;17.63;;;3.08;;
59788;SDS011;47353;51.614;5.530;2023-03-04T02:54:30;11.52;;;2.45;;
59788;SDS011;47353;51.614;5.530;2023-03-04T02:56:58;11.38;;;2.40;;
59788;SDS011;47353;51.614;5.530;2023-03-04T02:59:25;15.65;;;2.75;;
59788;SDS011;47353;51.614;5.530;2023-03-04T03:01:51;16.42;;;2.60;;
59788;SDS011;47353;51.614;5.530;2023-03-04T03:04:16;14.38;;;2.10;;
59788;SDS011;47353;51.614;5.530;2023-03-04T03:06:43;9.57;;;2.65;;
59788;SDS011;47353;51.614;5.530;2023-03-04T03:09:09;14.48;;;2.65;;
59788;SDS011;47353;51.614;5.530;2023-03-04T03:11:34;8.40;;;2.30;;
59788;SDS011;47353;51.614;5.530;2023-03-04T03:14:00;12.65;;;2.45;;
59788;SDS011;47353;51.614;5.530;2023-03-04T03:16:26;18.60;;;2.80;;
59788;SDS011;47353;51.614;5.530;2023-03-04T03:18:52;12.23;;;2.65;;
59788;SDS011;47353;51.614;5.530;2023-03-04T03:21:17;14.23;;;2.13;;
59788;SDS011;47353;51.614;5.530;2023-03-04T03:23:43;13.55;;;2.67;;
59788;SDS011;47353;51.614;5.530;2023-03-04T03:26:08;10.40;;;2.53;;
59788;SDS011;47353;51.614;5.530;2023-03-04T03:28:34;10.93;;;2.30;;
59788;SDS011;47353;51.614;5.530;2023-03-04T03:31:00;10.07;;;2.10;;
59788;SDS011;47353;51.614;5.530;2023-03-04T03:33:25;7.85;;;1.92;;
59788;SDS011;47353;51.614;5.530;2023-03-04T03:35:51;13.07;;;2.30;;
59788;SDS011;47353;51.614;5.530;2023-03-04T03:38:16;9.65;;;2.13;;
59788;SDS011;47353;51.614;5.530;2023-03-04T03:40:41;11.70;;;2.42;;
59788;SDS011;47353;51.614;5.530;2023-03-04T03:43:07;13.57;;;2.10;;
59788;SDS011;47353;51.614;5.530;2023-03-04T03:45:32;12.32;;;2.55;;
59788;SDS011;47353;51.614;5.530;2023-03-04T03:47:57;9.88;;;2.17;;
59788;SDS011;47353;51.614;5.530;2023-03-04T03:50:23;13.40;;;2.55;;
59788;SDS011;47353;51.614;5.530;2023-03-04T03:52:48;10.15;;;2.38;;
59788;SDS011;47353;51.614;5.530;2023-03-04T03:55:14;14.63;;;2.38;;
59788;SDS011;47353;51.614;5.530;2023-03-04T03:57:39;11.25;;;2.35;;
59788;SDS011;47353;51.614;5.530;2023-03-04T04:00:05;25.40;;;3.17;;
59788;SDS011;47353;51.614;5.530;2023-03-04T04:02:31;16.23;;;2.53;;
59788;SDS011;47353;51.614;5.530;2023-03-04T04:04:57;12.52;;;2.22;;
59788;SDS011;47353;51.614;5.530;2023-03-04T04:07:22;12.50;;;2.38;;
59788;SDS011;47353;51.614;5.530;2023-03-04T04:09:48;11.35;;;2.30;;
59788;SDS011;47353;51.614;5.530;2023-03-04T04:12:13;10.95;;;2.17;;
59788;SDS011;47353;51.614;5.530;2023-03-04T04:14:42;12.80;;;2.30;;
59788;SDS011;47353;51.614;5.530;2023-03-04T04:17:08;12.70;;;2.72;;
59788;SDS011;47353;51.614;5.530;2023-03-04T04:19:34;11.40;;;2.40;;
59788;SDS011;47353;51.614;5.530;2023-03-04T04:21:59;11.02;;;2.40;;
59788;SDS011;47353;51.614;5.530;2023-03-04T04:24:25;10.65;;;2.20;;
59788;SDS011;47353;51.614;5.530;2023-03-04T04:26:50;15.73;;;3.00;;
59788;SDS011;47353;51.614;5.530;2023-03-04T04:29:16;12.48;;;2.88;;
59788;SDS011;47353;51.614;5.530;2023-03-04T04:31:42;15.30;;;2.28;;
59788;SDS011;47353;51.614;5.530;2023-03-04T04:34:08;16.35;;;2.50;;
59788;SDS011;47353;51.614;5.530;2023-03-04T04:36:33;12.07;;;2.47;;
59788;SDS011;47353;51.614;5.530;2023-03-04T04:38:59;9.43;;;2.17;;
59788;SDS011;47353;51.614;5.530;2023-03-04T04:41:26;11.18;;;2.42;;
59788;SDS011;47353;51.614;5.530;2023-03-04T04:43:54;14.40;;;2.28;;
59788;SDS011;47353;51.614;5.530;2023-03-04T04:46:19;10.30;;;2.15;;
59788;SDS011;47353;51.614;5.530;2023-03-04T04:48:45;18.50;;;2.67;;
59788;SDS011;47353;51.614;5.530;2023-03-04T04:51:10;15.25;;;3.33;;
59788;SDS011;47353;51.614;5.530;2023-03-04T04:53:36;11.65;;;2.35;;
59788;SDS011;47353;51.614;5.530;2023-03-04T04:56:08;11.40;;;2.15;;
59788;SDS011;47353;51.614;5.530;2023-03-04T04:58:35;12.85;;;3.00;;
59788;SDS011;47353;51.614;5.530;2023-03-04T05:01:01;14.38;;;2.97;;
59788;SDS011;47353;51.614;5.530;2023-03-04T05:03:28;7.88;;;1.80;;
59788;SDS011;47353;51.614;5.530;2023-03-04T05:05:53;7.47;;;2.10;;
59788;SDS011;47353;51.614;5.530;2023-03-04T05:08:18;10.45;;;2.38;;
59788;SDS011;47353;51.614;5.530;2023-03-04T05:10:44;12.90;;;2.55;;
59788;SDS011;47353;51.614;5.530;2023-03-04T05:13:09;15.50;;;2.95;;
59788;SDS011;47353;51.614;5.530;2023-03-04T05:15:36;18.92;;;3.50;;
59788;SDS011;47353;51.614;5.530;2023-03-04T05:18:02;15.57;;;5.28;;
59788;SDS011;47353;51.614;5.530;2023-03-04T05:20:27;12.20;;;3.25;;
59788;SDS011;47353;51.614;5.530;2023-03-04T05:22:52;10.05;;;3.40;;
59788;SDS011;47353;51.614;5.530;2023-03-04T05:25:18;16.58;;;5.82;;
59788;SDS011;47353;51.614;5.530;2023-03-04T05:27:43;18.67;;;7.72;;
59788;SDS011;47353;51.614;5.530;2023-03-04T05:30:09;18.30;;;9.32;;
59788;SDS011;47353;51.614;5.530;2023-03-04T05:32:35;25.33;;;14.40;;
59788;SDS011;47353;51.614;5.530;2023-03-04T05:35:01;21.02;;;11.77;;
59788;SDS011;47353;51.614;5.530;2023-03-04T05:37:26;17.98;;;6.72;;
59788;SDS011;47353;51.614;5.530;2023-03-04T05:39:51;17.15;;;6.03;;
59788;SDS011;47353;51.614;5.530;2023-03-04T05:42:17;13.20;;;3.35;;
59788;SDS011;47353;51.614;5.530;2023-03-04T05:44:42;11.23;;;2.13;;
59788;SDS011;47353;51.614;5.530;2023-03-04T05:47:08;9.73;;;2.40;;
59788;SDS011;47353;51.614;5.530;2023-03-04T05:49:33;9.73;;;2.72;;
59788;SDS011;47353;51.614;5.530;2023-03-04T05:51:58;14.13;;;3.00;;
59788;SDS011;47353;51.614;5.530;2023-03-04T05:54:24;12.00;;;2.40;;
59788;SDS011;47353;51.614;5.530;2023-03-04T05:56:49;12.02;;;2.70;;
59788;SDS011;47353;51.614;5.530;2023-03-04T05:59:15;9.35;;;2.40;;
59788;SDS011;47353;51.614;5.530;2023-03-04T06:01:44;12.05;;;2.13;;
59788;SDS011;47353;51.614;5.530;2023-03-04T06:04:10;12.95;;;2.53;;
59788;SDS011;47353;51.614;5.530;2023-03-04T06:06:35;14.30;;;2.55;;
59788;SDS011;47353;51.614;5.530;2023-03-04T06:09:01;10.10;;;2.05;;
59788;SDS011;47353;51.614;5.530;2023-03-04T06:11:27;8.05;;;1.95;;
59788;SDS011;47353;51.614;5.530;2023-03-04T06:13:52;7.10;;;2.00;;
59788;SDS011;47353;51.614;5.530;2023-03-04T06:16:18;9.90;;;2.30;;
59788;SDS011;47353;51.614;5.530;2023-03-04T06:18:43;15.63;;;2.20;;
59788;SDS011;47353;51.614;5.530;2023-03-04T06:21:08;9.98;;;1.85;;
59788;SDS011;47353;51.614;5.530;2023-03-04T06:23:34;14.23;;;3.22;;
59788;SDS011;47353;51.614;5.530;2023-03-04T06:25:59;10.77;;;3.00;;
59788;SDS011;47353;51.614;5.530;2023-03-04T06:28:25;7.72;;;2.30;;
59788;SDS011;47353;51.614;5.530;2023-03-04T06:30:52;8.55;;;2.70;;
59788;SDS011;47353;51.614;5.530;2023-03-04T06:33:19;10.55;;;3.28;;
59788;SDS011;47353;51.614;5.530;2023-03-04T06:35:44;6.97;;;2.22;;
59788;SDS011;47353;51.614;5.530;2023-03-04T06:38:10;7.35;;;2.15;;
59788;SDS011;47353;51.614;5.530;2023-03-04T06:40:35;8.73;;;2.42;;
59788;SDS011;47353;51.614;5.530;2023-03-04T06:43:01;9.98;;;1.80;;
59788;SDS011;47353;51.614;5.530;2023-03-04T06:45:26;7.82;;;1.98;;
59788;SDS011;47353;51.614;5.530;2023-03-04T06:47:51;6.13;;;1.52;;
59788;SDS011;47353;51.614;5.530;2023-03-04T06:50:17;7.03;;;2.10;;
59788;SDS011;47353;51.614;5.530;2023-03-04T06:52:42;9.35;;;1.88;;
59788;SDS011;47353;51.614;5.530;2023-03-04T06:55:08;6.68;;;1.70;;
59788;SDS011;47353;51.614;5.530;2023-03-04T06:57:34;11.93;;;1.88;;
59788;SDS011;47353;51.614;5.530;2023-03-04T06:59:59;7.45;;;2.00;;
59788;SDS011;47353;51.614;5.530;2023-03-04T07:02:27;7.72;;;2.30;;
59788;SDS011;47353;51.614;5.530;2023-03-04T07:04:52;13.32;;;4.00;;
59788;SDS011;47353;51.614;5.530;2023-03-04T07:07:18;8.65;;;2.03;;
59788;SDS011;47353;51.614;5.530;2023-03-04T07:09:43;7.07;;;2.30;;
59788;SDS011;47353;51.614;5.530;2023-03-04T07:12:09;13.88;;;2.22;;
59788;SDS011;47353;51.614;5.530;2023-03-04T07:14:34;10.13;;;2.53;;
59788;SDS011;47353;51.614;5.530;2023-03-04T07:16:59;10.10;;;1.92;;
59788;SDS011;47353;51.614;5.530;2023-03-04T07:19:25;9.65;;;2.30;;
59788;SDS011;47353;51.614;5.530;2023-03-04T07:21:50;7.05;;;2.42;;
59788;SDS011;47353;51.614;5.530;2023-03-04T07:24:16;9.93;;;2.83;;
59788;SDS011;47353;51.614;5.530;2023-03-04T07:26:41;26.38;;;11.32;;
59788;SDS011;47353;51.614;5.530;2023-03-04T07:29:07;11.02;;;3.78;;
59788;SDS011;47353;51.614;5.530;2023-03-04T07:31:33;8.85;;;3.15;;
59788;SDS011;47353;51.614;5.530;2023-03-04T07:34:00;11.07;;;2.75;;
59788;SDS011;47353;51.614;5.530;2023-03-04T07:36:27;8.68;;;3.83;;
59788;SDS011;47353;51.614;5.530;2023-03-04T07:38:53;14.32;;;3.30;;
59788;SDS011;47353;51.614;5.530;2023-03-04T07:41:19;13.00;;;3.13;;
59788;SDS011;47353;51.614;5.530;2023-03-04T07:43:45;13.93;;;5.00;;
59788;SDS011;47353;51.614;5.530;2023-03-04T07:46:11;17.17;;;6.72;;
59788;SDS011;47353;51.614;5.530;2023-03-04T07:48:37;10.57;;;2.78;;
59788;SDS011;47353;51.614;5.530;2023-03-04T07:53:33;9.02;;;2.70;;
59788;SDS011;47353;51.614;5.530;2023-03-04T07:55:59;13.63;;;2.38;;
59788;SDS011;47353;51.614;5.530;2023-03-04T07:58:25;9.68;;;2.58;;
59788;SDS011;47353;51.614;5.530;2023-03-04T08:00:50;7.82;;;2.28;;
59788;SDS011;47353;51.614;5.530;2023-03-04T08:03:16;10.10;;;2.75;;
59788;SDS011;47353;51.614;5.530;2023-03-04T08:05:42;8.30;;;2.13;;
59788;SDS011;47353;51.614;5.530;2023-03-04T08:08:07;7.22;;;2.35;;
59788;SDS011;47353;51.614;5.530;2023-03-04T08:10:33;6.05;;;2.47;;
59788;SDS011;47353;51.614;5.530;2023-03-04T08:12:58;9.40;;;2.83;;
59788;SDS011;47353;51.614;5.530;2023-03-04T08:15:24;12.35;;;2.50;;
59788;SDS011;47353;51.614;5.530;2023-03-04T08:17:51;10.85;;;3.20;;
59788;SDS011;47353;51.614;5.530;2023-03-04T08:20:16;11.90;;;2.53;;
59788;SDS011;47353;51.614;5.530;2023-03-04T08:22:42;8.70;;;2.47;;
59788;SDS011;47353;51.614;5.530;2023-03-04T08:25:07;8.48;;;2.15;;
59788;SDS011;47353;51.614;5.530;2023-03-04T08:27:33;14.55;;;2.83;;
59788;SDS011;47353;51.614;5.530;2023-03-04T08:29:59;13.82;;;2.78;;
59788;SDS011;47353;51.614;5.530;2023-03-04T08:32:24;8.93;;;2.88;;
59788;SDS011;47353;51.614;5.530;2023-03-04T08:34:49;9.25;;;2.20;;
59788;SDS011;47353;51.614;5.530;2023-03-04T08:37:15;13.85;;;6.57;;
59788;SDS011;47353;51.614;5.530;2023-03-04T08:39:40;24.60;;;9.95;;
59788;SDS011;47353;51.614;5.530;2023-03-04T08:42:05;27.58;;;9.40;;
59788;SDS011;47353;51.614;5.530;2023-03-04T08:44:31;8.93;;;3.85;;
59788;SDS011;47353;51.614;5.530;2023-03-04T08:46:56;11.25;;;3.70;;
59788;SDS011;47353;51.614;5.530;2023-03-04T08:49:22;8.35;;;2.72;;
59788;SDS011;47353;51.614;5.530;2023-03-04T08:51:47;9.43;;;2.22;;
59788;SDS011;47353;51.614;5.530;2023-03-04T08:54:12;8.30;;;2.60;;
59788;SDS011;47353;51.614;5.530;2023-03-04T08:56:39;7.88;;;2.63;;
59788;SDS011;47353;51.614;5.530;2023-03-04T08:59:04;6.50;;;1.80;;
59788;SDS011;47353;51.614;5.530;2023-03-04T09:01:30;6.88;;;2.10;;
59788;SDS011;47353;51.614;5.530;2023-03-04T09:03:55;5.85;;;2.60;;
59788;SDS011;47353;51.614;5.530;2023-03-04T09:06:21;9.45;;;2.70;;
59788;SDS011;47353;51.614;5.530;2023-03-04T09:08:46;9.52;;;2.92;;
59788;SDS011;47353;51.614;5.530;2023-03-04T09:11:12;14.48;;;4.50;;
59788;SDS011;47353;51.614;5.530;2023-03-04T09:13:38;7.38;;;2.50;;
59788;SDS011;47353;51.614;5.530;2023-03-04T09:16:07;6.95;;;2.33;;
59788;SDS011;47353;51.614;5.530;2023-03-04T09:18:37;9.23;;;2.67;;
59788;SDS011;47353;51.614;5.530;2023-03-04T09:21:03;9.93;;;4.32;;
59788;SDS011;47353;51.614;5.530;2023-03-04T09:23:29;9.63;;;3.30;;
59788;SDS011;47353;51.614;5.530;2023-03-04T09:25:55;8.98;;;4.63;;
59788;SDS011;47353;51.614;5.530;2023-03-04T09:28:20;9.63;;;4.13;;
59788;SDS011;47353;51.614;5.530;2023-03-04T09:30:46;7.43;;;3.47;;
59788;SDS011;47353;51.614;5.530;2023-03-04T09:33:11;14.30;;;6.45;;
59788;SDS011;47353;51.614;5.530;2023-03-04T09:35:37;14.30;;;6.30;;
59788;SDS011;47353;51.614;5.530;2023-03-04T09:38:03;12.85;;;6.15;;
59788;SDS011;47353;51.614;5.530;2023-03-04T09:40:30;11.82;;;6.13;;
59788;SDS011;47353;51.614;5.530;2023-03-04T09:43:02;7.68;;;2.15;;
59788;SDS011;47353;51.614;5.530;2023-03-04T09:45:41;8.27;;;3.30;;
59788;SDS011;47353;51.614;5.530;2023-03-04T09:48:11;11.32;;;6.25;;
59788;SDS011;47353;51.614;5.530;2023-03-04T09:50:41;7.97;;;2.95;;
59788;SDS011;47353;51.614;5.530;2023-03-04T09:55:43;5.60;;;2.30;;
59788;SDS011;47353;51.614;5.530;2023-03-04T09:58:34;5.45;;;2.28;;
59788;SDS011;47353;51.614;5.530;2023-03-04T10:04:00;7.60;;;3.45;;
59788;SDS011;47353;51.614;5.530;2023-03-04T10:06:34;7.70;;;4.07;;
59788;SDS011;47353;51.614;5.530;2023-03-04T10:09:02;7.40;;;2.40;;
59788;SDS011;47353;51.614;5.530;2023-03-04T10:17:21;8.82;;;4.00;;
59788;SDS011;47353;51.614;5.530;2023-03-04T10:22:34;9.20;;;3.28;;
59788;SDS011;47353;51.614;5.530;2023-03-04T10:25:16;12.50;;;4.93;;
59788;SDS011;47353;51.614;5.530;2023-03-04T10:27:49;8.43;;;3.20;;
59788;SDS011;47353;51.614;5.530;2023-03-04T10:33:25;8.48;;;4.63;;
59788;SDS011;47353;51.614;5.530;2023-03-04T10:38:29;6.90;;;3.10;;
59788;SDS011;47353;51.614;5.530;2023-03-04T10:41:11;6.55;;;2.63;;
59788;SDS011;47353;51.614;5.530;2023-03-04T10:46:23;7.55;;;3.05;;
59788;SDS011;47353;51.614;5.530;2023-03-04T10:48:49;6.72;;;3.15;;
59788;SDS011;47353;51.614;5.530;2023-03-04T10:51:18;4.75;;;2.50;;
59788;SDS011;47353;51.614;5.530;2023-03-04T10:53:44;7.53;;;2.78;;
59788;SDS011;47353;51.614;5.530;2023-03-04T11:01:54;5.60;;;1.70;;
59788;SDS011;47353;51.614;5.530;2023-03-04T11:04:23;3.38;;;1.40;;
59788;SDS011;47353;51.614;5.530;2023-03-04T11:06:51;5.75;;;1.48;;
59788;SDS011;47353;51.614;5.530;2023-03-04T11:09:24;2.78;;;1.40;;
59788;SDS011;47353;51.614;5.530;2023-03-04T11:11:55;33.13;;;14.43;;
59788;SDS011;47353;51.614;5.530;2023-03-04T11:14:25;18.52;;;9.57;;
59788;SDS011;47353;51.614;5.530;2023-03-04T11:16:56;5.07;;;2.20;;
59788;SDS011;47353;51.614;5.530;2023-03-04T11:19:36;5.07;;;2.63;;
59788;SDS011;47353;51.614;5.530;2023-03-04T11:22:03;4.40;;;2.35;;
59788;SDS011;47353;51.614;5.530;2023-03-04T11:24:30;6.57;;;2.20;;
59788;SDS011;47353;51.614;5.530;2023-03-04T11:27:00;4.63;;;2.03;;
59788;SDS011;47353;51.614;5.530;2023-03-04T11:29:32;4.40;;;1.55;;
59788;SDS011;47353;51.614;5.530;2023-03-04T11:35:12;6.10;;;3.58;;
59788;SDS011;47353;51.614;5.530;2023-03-04T11:38:21;12.35;;;6.10;;
59788;SDS011;47353;51.614;5.530;2023-03-04T11:40:43;5.72;;;3.78;;
59788;SDS011;47353;51.614;5.530;2023-03-04T11:43:13;6.30;;;2.75;;
59788;SDS011;47353;51.614;5.530;2023-03-04T11:48:18;6.50;;;2.15;;
59788;SDS011;47353;51.614;5.530;2023-03-04T11:56:58;4.63;;;2.63;;
59788;SDS011;47353;51.614;5.530;2023-03-04T11:59:34;6.57;;;2.75;;
59788;SDS011;47353;51.614;5.530;2023-03-04T12:05:54;6.05;;;3.25;;
59788;SDS011;47353;51.614;5.530;2023-03-04T12:32:04;5.53;;;4.10;;
59788;SDS011;47353;51.614;5.530;2023-03-04T12:43:29;4.85;;;3.70;;
59788;SDS011;47353;51.614;5.530;2023-03-04T12:46:23;4.20;;;2.50;;
59788;SDS011;47353;51.614;5.530;2023-03-04T12:57:11;4.30;;;2.10;;
59788;SDS011;47353;51.614;5.530;2023-03-04T12:59:41;4.00;;;2.65;;
59788;SDS011;47353;51.614;5.530;2023-03-04T13:04:56;4.22;;;3.10;;
59788;SDS011;47353;51.614;5.530;2023-03-04T13:10:11;9.48;;;6.88;;
59788;SDS011;47353;51.614;5.530;2023-03-04T13:12:48;6.80;;;4.10;;
59788;SDS011;47353;51.614;5.530;2023-03-04T13:15:16;9.27;;;6.05;;
59788;SDS011;47353;51.614;5.530;2023-03-04T13:17:52;5.35;;;4.10;;
59788;SDS011;47353;51.614;5.530;2023-03-04T13:20:40;3.88;;;2.60;;
59788;SDS011;47353;51.614;5.530;2023-03-04T13:41:05;4.25;;;3.28;;
59788;SDS011;47353;51.614;5.530;2023-03-04T13:43:40;6.22;;;3.10;;
59788;SDS011;47353;51.614;5.530;2023-03-04T13:48:42;3.80;;;2.63;;
59788;SDS011;47353;51.614;5.530;2023-03-04T13:51:32;3.20;;;2.35;;
59788;SDS011;47353;51.614;5.530;2023-03-04T13:59:40;4.40;;;2.13;;
59788;SDS011;47353;51.614;5.530;2023-03-04T14:02:13;2.80;;;1.40;;
59788;SDS011;47353;51.614;5.530;2023-03-04T14:09:54;4.57;;;1.40;;
59788;SDS011;47353;51.614;5.530;2023-03-04T14:12:19;4.20;;;1.60;;
59788;SDS011;47353;51.614;5.530;2023-03-04T14:14:56;3.63;;;1.70;;
59788;SDS011;47353;51.614;5.530;2023-03-04T14:17:26;7.07;;;1.90;;
59788;SDS011;47353;51.614;5.530;2023-03-04T14:19:55;5.07;;;2.03;;
59788;SDS011;47353;51.614;5.530;2023-03-04T14:24:54;4.70;;;2.17;;
59788;SDS011;47353;51.614;5.530;2023-03-04T14:27:20;5.68;;;2.10;;
59788;SDS011;47353;51.614;5.530;2023-03-04T14:29:49;4.60;;;2.22;;
59788;SDS011;47353;51.614;5.530;2023-03-04T14:32:19;3.75;;;2.00;;
59788;SDS011;47353;51.614;5.530;2023-03-04T14:34:45;6.22;;;2.13;;
59788;SDS011;47353;51.614;5.530;2023-03-04T14:37:23;4.50;;;1.70;;
59788;SDS011;47353;51.614;5.530;2023-03-04T14:39:52;4.40;;;2.00;;
59788;SDS011;47353;51.614;5.530;2023-03-04T14:42:22;6.47;;;2.60;;
59788;SDS011;47353;51.614;5.530;2023-03-04T14:44:51;5.45;;;1.88;;
59788;SDS011;47353;51.614;5.530;2023-03-04T14:47:32;3.90;;;1.40;;
59788;SDS011;47353;51.614;5.530;2023-03-04T14:50:06;3.13;;;1.40;;
59788;SDS011;47353;51.614;5.530;2023-03-04T14:52:40;5.43;;;1.67;;
59788;SDS011;47353;51.614;5.530;2023-03-04T14:55:19;4.88;;;1.40;;
59788;SDS011;47353;51.614;5.530;2023-03-04T14:57:52;4.28;;;1.35;;
59788;SDS011;47353;51.614;5.530;2023-03-04T15:00:30;4.75;;;1.80;;
59788;SDS011;47353;51.614;5.530;2023-03-04T15:03:06;8.35;;;1.80;;
59788;SDS011;47353;51.614;5.530;2023-03-04T15:05:40;6.93;;;1.73;;
59788;SDS011;47353;51.614;5.530;2023-03-04T15:08:23;5.85;;;1.70;;
59788;SDS011;47353;51.614;5.530;2023-03-04T15:11:01;8.13;;;1.90;;
59788;SDS011;47353;51.614;5.530;2023-03-04T15:13:42;6.07;;;1.60;;
59788;SDS011;47353;51.614;5.530;2023-03-04T15:16:10;10.60;;;2.03;;
59788;SDS011;47353;51.614;5.530;2023-03-04T15:18:37;10.23;;;2.22;;
59788;SDS011;47353;51.614;5.530;2023-03-04T15:23:43;11.80;;;3.50;;
59788;SDS011;47353;51.614;5.530;2023-03-04T15:26:09;13.63;;;3.40;;
59788;SDS011;47353;51.614;5.530;2023-03-04T15:28:37;12.77;;;3.88;;
59788;SDS011;47353;51.614;5.530;2023-03-04T15:31:04;14.40;;;4.68;;
59788;SDS011;47353;51.614;5.530;2023-03-04T15:33:30;15.38;;;3.78;;
59788;SDS011;47353;51.614;5.530;2023-03-04T15:35:56;10.02;;;2.65;;
59788;SDS011;47353;51.614;5.530;2023-03-04T15:38:24;8.45;;;2.30;;
59788;SDS011;47353;51.614;5.530;2023-03-04T15:40:50;7.07;;;2.13;;
59788;SDS011;47353;51.614;5.530;2023-03-04T15:43:17;13.10;;;2.80;;
59788;SDS011;47353;51.614;5.530;2023-03-04T15:45:45;12.00;;;2.28;;
59788;SDS011;47353;51.614;5.530;2023-03-04T15:48:12;19.00;;;7.22;;
59788;SDS011;47353;51.614;5.530;2023-03-04T15:50:40;44.08;;;15.93;;
59788;SDS011;47353;51.614;5.530;2023-03-04T15:53:20;17.63;;;9.77;;
59788;SDS011;47353;51.614;5.530;2023-03-04T15:55:56;12.00;;;3.65;;
59788;SDS011;47353;51.614;5.530;2023-03-04T15:58:22;13.88;;;3.17;;
59788;SDS011;47353;51.614;5.530;2023-03-04T16:00:48;6.82;;;2.22;;
59788;SDS011;47353;51.614;5.530;2023-03-04T16:03:15;8.93;;;1.75;;
59788;SDS011;47353;51.614;5.530;2023-03-04T16:05:44;7.40;;;2.08;;
59788;SDS011;47353;51.614;5.530;2023-03-04T16:08:12;11.10;;;2.55;;
59788;SDS011;47353;51.614;5.530;2023-03-04T16:10:39;8.43;;;2.30;;
59788;SDS011;47353;51.614;5.530;2023-03-04T16:13:05;7.88;;;1.90;;
59788;SDS011;47353;51.614;5.530;2023-03-04T16:15:30;7.57;;;2.22;;
59788;SDS011;47353;51.614;5.530;2023-03-04T16:17:56;9.85;;;2.00;;
59788;SDS011;47353;51.614;5.530;2023-03-04T16:20:22;10.05;;;2.08;;
59788;SDS011;47353;51.614;5.530;2023-03-04T16:22:51;7.63;;;2.10;;
59788;SDS011;47353;51.614;5.530;2023-03-04T16:25:19;7.28;;;2.28;;
59788;SDS011;47353;51.614;5.530;2023-03-04T16:27:46;11.02;;;2.30;;
59788;SDS011;47353;51.614;5.530;2023-03-04T16:30:23;12.35;;;2.33;;
59788;SDS011;47353;51.614;5.530;2023-03-04T16:32:50;7.95;;;2.28;;
59788;SDS011;47353;51.614;5.530;2023-03-04T16:35:16;10.48;;;3.10;;
59788;SDS011;47353;51.614;5.530;2023-03-04T16:37:42;9.25;;;3.67;;
59788;SDS011;47353;51.614;5.530;2023-03-04T16:40:13;16.35;;;7.15;;
59788;SDS011;47353;51.614;5.530;2023-03-04T16:42:40;12.82;;;3.30;;
59788;SDS011;47353;51.614;5.530;2023-03-04T16:45:09;9.77;;;2.53;;
59788;SDS011;47353;51.614;5.530;2023-03-04T16:47:39;12.27;;;2.50;;
59788;SDS011;47353;51.614;5.530;2023-03-04T16:50:05;10.30;;;2.90;;
59788;SDS011;47353;51.614;5.530;2023-03-04T16:52:31;6.53;;;2.60;;
59788;SDS011;47353;51.614;5.530;2023-03-04T16:54:57;6.30;;;2.10;;
59788;SDS011;47353;51.614;5.530;2023-03-04T16:57:23;9.23;;;2.58;;